Allerton, New York
Current Conditions -  °F | °C
As of 6:51 AM on Thursday 23 Oct 2014 (Local Time) from KLGA Reporting Station
Overcast Overcast  
Wind Chill: 52°   Ceiling: 1900
Heat Index: 52°   Visibility: 10mi
Dew Point: 47°   Wind: 13mph
Humidity: 83%   Direction: 350°N
Pressure: 29.69"   Gusts: 24mph
Location:  40.8778°N, 73.8721°W
Report Text: KLGA 231051Z 35011G21KT 10SM OVC019 11/08 A2969 RMK AO2 RAB16E41 SLP054 P0000 T01110083
Loading
Personal Weather Stations






























Interactive Weather Map
Tropical Storm Tracking
New forecast layout! Learn more

10-Day Weather Forecast

Advertisements
Track Severe Weather on mobile